PWSweather.com
Personal Weather Stations
Station Observations
TAIGUM
Cashmere, BrisbaneAU 4500

CashmereBrisbaneAU 4500

Lat: -27.2949692, Lon: 152.9343974

Elevation: 125

Station Type: Vantage Pro 2

http://www.brisbaneliveweather.com

Latest ConditionsUpdated 10:15:01 AM GMT+10:10 Wednesday, Jul 8, 2015
Currently Today's Max Today's Min Today's Average
Temperature 65.5°F18.6°C 65.5°F18.6°C 41.2°F5.1°C 47.1°F8.4°C
Dew Point 52.0°F11.1°C 52.0°F11.1°C 39.9°F4.4°C 43.4°F6.3°C
Winds 4.0 mph SE6.4 kmh SE 5.0 mph SSE8.0 kmh SSE - 0.7 mph 1.1 kmh
Wind Gusts 5.0 mph8.0 kmh 13.0 mph20.9 kmh - -
Humidity 62% 97% 60% 88%
Pressure 30.25 in1024.4 mb 30.25 in1024.4 mb 30.15 in1021.0 mb -
Hour Temp Dew Point Humidity Winds Wind Gusts Pressure Precip Precip Rate Daily Precip Total
10:15 AM 65.5°F18.6°C 52.0°F11.1°C 62% 4.0 mph SE6.4 kmh SE 5.0 mph8.0 kmh 30.25 in1024.4 mb 0.00 in0.0 mm 0.00 in0.0 mm 0.00 in0.0 mm
10:00 AM 63.9°F17.7°C 49.8°F9.9°C 60% 4.0 mph S6.4 kmh S 12.0 mph19.3 kmh 30.24 in1024.0 mb 0.00 in0.0 mm 0.00 in0.0 mm 0.00 in0.0 mm
09:45 AM 63.3°F17.4°C 50.5°F10.3°C 63% 5.0 mph SSE8.0 kmh SSE 9.0 mph14.5 kmh 30.24 in1024.0 mb 0.00 in0.0 mm 0.00 in0.0 mm 0.00 in0.0 mm
09:30 AM 62.1°F16.7°C 49.3°F9.6°C 63% 4.0 mph S6.4 kmh S 7.0 mph11.3 kmh 30.25 in1024.4 mb 0.00 in0.0 mm 0.00 in0.0 mm 0.00 in0.0 mm
09:15 AM 61.0°F16.1°C 48.7°F9.3°C 64% 4.0 mph S6.4 kmh S 13.0 mph20.9 kmh 30.24 in1024.0 mb 0.00 in0.0 mm 0.00 in0.0 mm 0.00 in0.0 mm
09:00 AM 60.6°F15.9°C 49.6°F9.8°C 67% 2.0 mph S3.2 kmh S 1.0 mph1.6 kmh 30.24 in1024.0 mb 0.00 in0.0 mm 0.00 in0.0 mm 0.00 in0.0 mm
08:45 AM 58.6°F14.8°C 48.9°F9.4°C 70% 4.0 mph S6.4 kmh S 11.0 mph17.7 kmh 30.24 in1024.0 mb 0.00 in0.0 mm 0.00 in0.0 mm 0.00 in0.0 mm
08:30 AM 57.7°F14.3°C 48.4°F9.1°C 71% 2.0 mph S3.2 kmh S 8.0 mph12.9 kmh 30.24 in1024.0 mb 0.00 in0.0 mm 0.00 in0.0 mm 0.00 in0.0 mm
08:15 AM 55.9°F13.3°C 48.6°F9.2°C 76% 1.0 mph SSW1.6 kmh SSW 7.0 mph11.3 kmh 30.23 in1023.7 mb 0.00 in0.0 mm 0.00 in0.0 mm 0.00 in0.0 mm
08:00 AM 51.6°F10.9°C 48.4°F9.1°C 89% Calm Calm -- 30.23 in1023.7 mb 0.00 in0.0 mm 0.00 in0.0 mm 0.00 in0.0 mm
07:45 AM 47.3°F8.5°C 46.6°F8.1°C 97% Calm Calm -- 30.23 in1023.7 mb 0.00 in0.0 mm 0.00 in0.0 mm 0.00 in0.0 mm
07:30 AM 43.5°F6.4°C 42.6°F5.9°C 96% Calm Calm -- 30.22 in1023.4 mb 0.00 in0.0 mm 0.00 in0.0 mm 0.00 in0.0 mm
07:15 AM 42.1°F5.6°C 41.0°F5.0°C 96% Calm Calm 2.0 mph3.2 kmh 30.22 in1023.4 mb 0.00 in0.0 mm 0.00 in0.0 mm 0.00 in0.0 mm
07:00 AM 41.4°F5.2°C 40.3°F4.6°C 96% Calm Calm -- 30.21 in1023.0 mb 0.00 in0.0 mm 0.00 in0.0 mm 0.00 in0.0 mm
06:45 AM 41.2°F5.1°C 40.1°F4.5°C 96% Calm Calm -- 30.21 in1023.0 mb 0.00 in0.0 mm 0.00 in0.0 mm 0.00 in0.0 mm
06:30 AM 41.2°F5.1°C 39.9°F4.4°C 95% Calm Calm -- 30.20 in1022.7 mb 0.00 in0.0 mm 0.00 in0.0 mm 0.00 in0.0 mm
06:00 AM 41.5°F5.3°C 40.3°F4.6°C 95% Calm Calm -- 30.20 in1022.7 mb 0.00 in0.0 mm 0.00 in0.0 mm 0.00 in0.0 mm
05:45 AM 41.9°F5.5°C 40.6°F4.8°C 95% Calm Calm -- 30.19 in1022.4 mb 0.00 in0.0 mm 0.00 in0.0 mm 0.00 in0.0 mm
05:30 AM 41.9°F5.5°C 40.6°F4.8°C 95% Calm Calm 1.0 mph1.6 kmh 30.19 in1022.4 mb 0.00 in0.0 mm 0.00 in0.0 mm 0.00 in0.0 mm
05:15 AM 41.9°F5.5°C 40.6°F4.8°C 95% Calm Calm -- 30.19 in1022.4 mb 0.00 in0.0 mm 0.00 in0.0 mm 0.00 in0.0 mm
05:00 AM 42.1°F5.6°C 40.6°F4.8°C 95% Calm Calm -- 30.18 in1022.0 mb 0.00 in0.0 mm 0.00 in0.0 mm 0.00 in0.0 mm
04:45 AM 42.3°F5.7°C 40.8°F4.9°C 95% Calm Calm -- 30.17 in1021.7 mb 0.00 in0.0 mm 0.00 in0.0 mm 0.00 in0.0 mm
04:30 AM 42.1°F5.6°C 40.8°F4.9°C 95% Calm Calm -- 30.16 in1021.3 mb 0.00 in0.0 mm 0.00 in0.0 mm 0.00 in0.0 mm
04:15 AM 41.7°F5.4°C 40.5°F4.7°C 95% Calm Calm -- 30.16 in1021.3 mb 0.00 in0.0 mm 0.00 in0.0 mm 0.00 in0.0 mm
04:00 AM 41.7°F5.4°C 40.5°F4.7°C 95% Calm Calm -- 30.16 in1021.3 mb 0.00 in0.0 mm 0.00 in0.0 mm 0.00 in0.0 mm
03:45 AM 41.9°F5.5°C 40.6°F4.8°C 95% Calm Calm -- 30.16 in1021.3 mb 0.00 in0.0 mm 0.00 in0.0 mm 0.00 in0.0 mm
03:30 AM 42.1°F5.6°C 40.8°F4.9°C 95% Calm Calm -- 30.16 in1021.3 mb 0.00 in0.0 mm 0.00 in0.0 mm 0.00 in0.0 mm
03:15 AM 42.4°F5.8°C 41.2°F5.1°C 95% Calm Calm -- 30.16 in1021.3 mb 0.00 in0.0 mm 0.00 in0.0 mm 0.00 in0.0 mm
03:00 AM 42.6°F5.9°C 41.4°F5.2°C 95% Calm Calm -- 30.16 in1021.3 mb 0.00 in0.0 mm 0.00 in0.0 mm 0.00 in0.0 mm
02:45 AM 42.6°F5.9°C 41.4°F5.2°C 95% Calm Calm -- 30.16 in1021.3 mb 0.00 in0.0 mm 0.00 in0.0 mm 0.00 in0.0 mm
02:30 AM 43.0°F6.1°C 41.4°F5.2°C 94% Calm Calm -- 30.16 in1021.3 mb 0.00 in0.0 mm 0.00 in0.0 mm 0.00 in0.0 mm
02:15 AM 43.2°F6.2°C 41.5°F5.3°C 94% Calm Calm -- 30.16 in1021.3 mb 0.00 in0.0 mm 0.00 in0.0 mm 0.00 in0.0 mm
02:00 AM 43.3°F6.3°C 41.7°F5.4°C 94% Calm Calm -- 30.16 in1021.3 mb 0.00 in0.0 mm 0.00 in0.0 mm 0.00 in0.0 mm
01:45 AM 43.5°F6.4°C 41.9°F5.5°C 94% Calm Calm -- 30.15 in1021.0 mb 0.00 in0.0 mm 0.00 in0.0 mm 0.00 in0.0 mm
01:30 AM 43.9°F6.6°C 42.3°F5.7°C 94% Calm Calm -- 30.16 in1021.3 mb 0.00 in0.0 mm 0.00 in0.0 mm 0.00 in0.0 mm
01:15 AM 43.9°F6.6°C 42.3°F5.7°C 94% Calm Calm -- 30.16 in1021.3 mb 0.00 in0.0 mm 0.00 in0.0 mm 0.00 in0.0 mm
01:00 AM 44.1°F6.7°C 42.4°F5.8°C 94% Calm Calm -- 30.16 in1021.3 mb 0.00 in0.0 mm 0.00 in0.0 mm 0.00 in0.0 mm
12:45 AM 44.2°F6.8°C 42.4°F5.8°C 93% Calm Calm -- 30.16 in1021.3 mb 0.00 in0.0 mm 0.00 in0.0 mm 0.00 in0.0 mm
12:30 AM 44.6°F7.0°C 42.6°F5.9°C 93% Calm Calm -- 30.16 in1021.3 mb 0.00 in0.0 mm 0.00 in0.0 mm 0.00 in0.0 mm
12:15 AM 45.0°F7.2°C 43.0°F6.1°C 93% Calm Calm -- 30.16 in1021.3 mb 0.00 in0.0 mm 0.00 in0.0 mm 0.00 in0.0 mm
12:00 AM 45.1°F7.3°C 43.3°F6.3°C 93% Calm Calm 1.0 mph1.6 kmh 30.15 in1021.0 mb 0.00 in0.0 mm 0.00 in0.0 mm 0.00 in0.0 mm